sensor_id;sensor_type;location;lat;lon;timestamp;P1;durP1;ratioP1;P2;durP2;ratioP2
75700;SDS011;64321;48.796;44.740;2024-02-21T00:04:16;6.63;;;1.95;;
75700;SDS011;64321;48.796;44.740;2024-02-21T00:09:18;4.63;;;2.17;;
75700;SDS011;64321;48.796;44.740;2024-02-21T00:14:22;6.88;;;2.05;;
75700;SDS011;64321;48.796;44.740;2024-02-21T00:24:27;3.00;;;1.55;;
75700;SDS011;64321;48.796;44.740;2024-02-21T00:29:29;2.47;;;0.85;;
75700;SDS011;64321;48.796;44.740;2024-02-21T00:34:32;4.40;;;0.65;;
75700;SDS011;64321;48.796;44.740;2024-02-21T00:39:35;2.30;;;0.90;;
75700;SDS011;64321;48.796;44.740;2024-02-21T00:44:39;4.78;;;2.65;;
75700;SDS011;64321;48.796;44.740;2024-02-21T00:49:41;8.60;;;3.30;;
75700;SDS011;64321;48.796;44.740;2024-02-21T00:54:44;2.97;;;1.63;;
75700;SDS011;64321;48.796;44.740;2024-02-21T00:59:54;3.88;;;1.45;;
75700;SDS011;64321;48.796;44.740;2024-02-21T01:04:57;7.93;;;2.67;;
75700;SDS011;64321;48.796;44.740;2024-02-21T01:10:00;4.75;;;1.60;;
75700;SDS011;64321;48.796;44.740;2024-02-21T01:15:04;2.97;;;0.93;;
75700;SDS011;64321;48.796;44.740;2024-02-21T01:20:07;6.32;;;1.30;;
75700;SDS011;64321;48.796;44.740;2024-02-21T01:25:10;3.53;;;0.82;;
75700;SDS011;64321;48.796;44.740;2024-02-21T01:35:15;5.50;;;2.15;;
75700;SDS011;64321;48.796;44.740;2024-02-21T01:40:18;4.35;;;1.75;;
75700;SDS011;64321;48.796;44.740;2024-02-21T01:45:20;2.47;;;1.05;;
75700;SDS011;64321;48.796;44.740;2024-02-21T01:50:23;4.70;;;2.25;;
75700;SDS011;64321;48.796;44.740;2024-02-21T01:55:26;4.00;;;1.20;;
75700;SDS011;64321;48.796;44.740;2024-02-21T02:00:31;4.30;;;1.05;;
75700;SDS011;64321;48.796;44.740;2024-02-21T02:05:34;2.17;;;0.85;;
75700;SDS011;64321;48.796;44.740;2024-02-21T02:10:37;2.45;;;1.52;;
75700;SDS011;64321;48.796;44.740;2024-02-21T02:15:43;2.15;;;0.90;;
75700;SDS011;64321;48.796;44.740;2024-02-21T02:20:47;2.17;;;0.65;;
75700;SDS011;64321;48.796;44.740;2024-02-21T02:25:51;3.17;;;0.90;;
75700;SDS011;64321;48.796;44.740;2024-02-21T02:30:56;3.03;;;1.05;;
75700;SDS011;64321;48.796;44.740;2024-02-21T02:35:59;5.93;;;2.60;;
75700;SDS011;64321;48.796;44.740;2024-02-21T02:41:01;3.13;;;1.13;;
75700;SDS011;64321;48.796;44.740;2024-02-21T02:46:04;3.60;;;1.85;;
75700;SDS011;64321;48.796;44.740;2024-02-21T02:51:07;3.22;;;1.17;;
75700;SDS011;64321;48.796;44.740;2024-02-21T02:56:13;2.95;;;1.30;;
75700;SDS011;64321;48.796;44.740;2024-02-21T03:01:19;5.05;;;1.88;;
75700;SDS011;64321;48.796;44.740;2024-02-21T03:06:22;9.25;;;1.30;;
75700;SDS011;64321;48.796;44.740;2024-02-21T03:11:24;2.47;;;0.70;;
75700;SDS011;64321;48.796;44.740;2024-02-21T03:16:32;1.98;;;0.73;;
75700;SDS011;64321;48.796;44.740;2024-02-21T03:26:36;2.03;;;0.70;;
75700;SDS011;64321;48.796;44.740;2024-02-21T03:31:39;2.78;;;1.83;;
75700;SDS011;64321;48.796;44.740;2024-02-21T03:36:42;2.00;;;0.75;;
75700;SDS011;64321;48.796;44.740;2024-02-21T03:41:44;4.93;;;1.35;;
75700;SDS011;64321;48.796;44.740;2024-02-21T03:46:47;2.33;;;0.80;;
75700;SDS011;64321;48.796;44.740;2024-02-21T03:51:49;3.35;;;1.35;;
75700;SDS011;64321;48.796;44.740;2024-02-21T03:56:52;2.22;;;0.93;;
75700;SDS011;64321;48.796;44.740;2024-02-21T04:01:54;2.70;;;0.73;;
75700;SDS011;64321;48.796;44.740;2024-02-21T04:06:57;4.15;;;0.98;;
75700;SDS011;64321;48.796;44.740;2024-02-21T04:12:00;3.13;;;1.50;;
75700;SDS011;64321;48.796;44.740;2024-02-21T04:17:03;1.98;;;0.60;;
75700;SDS011;64321;48.796;44.740;2024-02-21T04:22:07;2.10;;;0.93;;
75700;SDS011;64321;48.796;44.740;2024-02-21T04:27:10;2.40;;;0.77;;
75700;SDS011;64321;48.796;44.740;2024-02-21T04:32:12;2.95;;;0.95;;
75700;SDS011;64321;48.796;44.740;2024-02-21T04:37:15;1.90;;;0.77;;
75700;SDS011;64321;48.796;44.740;2024-02-21T04:42:17;4.07;;;1.00;;
75700;SDS011;64321;48.796;44.740;2024-02-21T04:47:20;4.03;;;1.85;;
75700;SDS011;64321;48.796;44.740;2024-02-21T04:52:22;1.52;;;0.65;;
75700;SDS011;64321;48.796;44.740;2024-02-21T04:57:25;2.28;;;0.80;;
75700;SDS011;64321;48.796;44.740;2024-02-21T05:02:27;4.55;;;2.47;;
75700;SDS011;64321;48.796;44.740;2024-02-21T05:07:30;3.17;;;1.17;;
75700;SDS011;64321;48.796;44.740;2024-02-21T05:12:32;5.80;;;1.55;;
75700;SDS011;64321;48.796;44.740;2024-02-21T05:17:35;6.25;;;2.58;;
75700;SDS011;64321;48.796;44.740;2024-02-21T05:22:38;6.18;;;1.70;;
75700;SDS011;64321;48.796;44.740;2024-02-21T05:27:40;3.67;;;1.23;;
75700;SDS011;64321;48.796;44.740;2024-02-21T05:32:43;3.47;;;0.85;;
75700;SDS011;64321;48.796;44.740;2024-02-21T05:37:45;2.15;;;0.60;;
75700;SDS011;64321;48.796;44.740;2024-02-21T05:42:51;3.35;;;0.65;;
75700;SDS011;64321;48.796;44.740;2024-02-21T05:47:53;4.10;;;1.38;;
75700;SDS011;64321;48.796;44.740;2024-02-21T05:52:56;4.95;;;1.75;;
75700;SDS011;64321;48.796;44.740;2024-02-21T06:03:01;4.43;;;1.58;;
75700;SDS011;64321;48.796;44.740;2024-02-21T06:13:06;4.68;;;1.67;;
75700;SDS011;64321;48.796;44.740;2024-02-21T06:18:09;6.45;;;1.70;;
75700;SDS011;64321;48.796;44.740;2024-02-21T06:23:12;9.05;;;3.28;;
75700;SDS011;64321;48.796;44.740;2024-02-21T06:28:15;7.70;;;2.78;;
75700;SDS011;64321;48.796;44.740;2024-02-21T06:33:18;7.00;;;3.15;;
75700;SDS011;64321;48.796;44.740;2024-02-21T06:38:24;5.47;;;1.65;;
75700;SDS011;64321;48.796;44.740;2024-02-21T06:48:29;4.80;;;1.05;;
75700;SDS011;64321;48.796;44.740;2024-02-21T06:53:32;4.90;;;1.83;;
75700;SDS011;64321;48.796;44.740;2024-02-21T06:58:35;9.38;;;1.83;;
75700;SDS011;64321;48.796;44.740;2024-02-21T07:03:38;6.35;;;1.23;;
75700;SDS011;64321;48.796;44.740;2024-02-21T07:08:40;6.68;;;1.90;;
75700;SDS011;64321;48.796;44.740;2024-02-21T07:18:45;6.53;;;2.08;;
75700;SDS011;64321;48.796;44.740;2024-02-21T07:23:48;7.60;;;2.45;;
75700;SDS011;64321;48.796;44.740;2024-02-21T07:28:50;8.50;;;1.60;;
75700;SDS011;64321;48.796;44.740;2024-02-21T07:38:55;5.70;;;2.13;;
75700;SDS011;64321;48.796;44.740;2024-02-21T07:49:01;6.93;;;1.55;;
75700;SDS011;64321;48.796;44.740;2024-02-21T07:54:04;5.95;;;2.90;;
75700;SDS011;64321;48.796;44.740;2024-02-21T08:04:10;7.50;;;2.08;;
75700;SDS011;64321;48.796;44.740;2024-02-21T08:09:12;5.97;;;2.65;;
75700;SDS011;64321;48.796;44.740;2024-02-21T08:19:21;9.32;;;3.72;;
75700;SDS011;64321;48.796;44.740;2024-02-21T08:24:27;12.35;;;6.00;;
75700;SDS011;64321;48.796;44.740;2024-02-21T08:29:29;12.20;;;5.30;;
75700;SDS011;64321;48.796;44.740;2024-02-21T08:34:32;16.77;;;7.25;;
75700;SDS011;64321;48.796;44.740;2024-02-21T08:39:36;11.38;;;4.32;;
75700;SDS011;64321;48.796;44.740;2024-02-21T08:44:39;13.20;;;3.38;;
75700;SDS011;64321;48.796;44.740;2024-02-21T08:49:42;9.77;;;4.20;;
75700;SDS011;64321;48.796;44.740;2024-02-21T08:54:45;5.70;;;2.55;;
75700;SDS011;64321;48.796;44.740;2024-02-21T08:59:47;4.25;;;2.25;;
75700;SDS011;64321;48.796;44.740;2024-02-21T09:04:49;4.22;;;2.55;;
75700;SDS011;64321;48.796;44.740;2024-02-21T09:09:52;5.80;;;1.90;;
75700;SDS011;64321;48.796;44.740;2024-02-21T09:19:57;5.35;;;2.63;;
75700;SDS011;64321;48.796;44.740;2024-02-21T09:25:05;8.27;;;2.83;;
75700;SDS011;64321;48.796;44.740;2024-02-21T09:30:08;7.30;;;4.57;;
75700;SDS011;64321;48.796;44.740;2024-02-21T09:35:11;4.93;;;2.33;;
75700;SDS011;64321;48.796;44.740;2024-02-21T09:40:17;6.05;;;3.65;;
75700;SDS011;64321;48.796;44.740;2024-02-21T09:45:21;4.80;;;2.35;;
75700;SDS011;64321;48.796;44.740;2024-02-21T09:50:25;6.35;;;2.33;;
75700;SDS011;64321;48.796;44.740;2024-02-21T09:55:31;3.22;;;1.10;;
75700;SDS011;64321;48.796;44.740;2024-02-21T10:00:37;4.53;;;2.20;;
75700;SDS011;64321;48.796;44.740;2024-02-21T10:05:44;3.45;;;1.13;;
75700;SDS011;64321;48.796;44.740;2024-02-21T10:10:52;6.97;;;2.25;;
75700;SDS011;64321;48.796;44.740;2024-02-21T10:16:07;11.75;;;3.30;;
75700;SDS011;64321;48.796;44.740;2024-02-21T10:21:10;4.95;;;2.15;;
75700;SDS011;64321;48.796;44.740;2024-02-21T10:26:13;10.60;;;1.58;;
75700;SDS011;64321;48.796;44.740;2024-02-21T10:31:26;9.13;;;2.63;;
75700;SDS011;64321;48.796;44.740;2024-02-21T10:36:30;8.32;;;2.22;;
75700;SDS011;64321;48.796;44.740;2024-02-21T10:41:32;5.18;;;1.92;;
75700;SDS011;64321;48.796;44.740;2024-02-21T10:46:35;9.73;;;3.55;;
75700;SDS011;64321;48.796;44.740;2024-02-21T10:51:41;12.93;;;4.75;;
75700;SDS011;64321;48.796;44.740;2024-02-21T10:56:46;17.73;;;4.93;;
75700;SDS011;64321;48.796;44.740;2024-02-21T11:01:52;13.55;;;5.25;;
75700;SDS011;64321;48.796;44.740;2024-02-21T11:06:59;15.07;;;3.72;;
75700;SDS011;64321;48.796;44.740;2024-02-21T11:12:04;12.18;;;3.00;;
75700;SDS011;64321;48.796;44.740;2024-02-21T11:17:20;13.05;;;3.70;;
75700;SDS011;64321;48.796;44.740;2024-02-21T11:22:25;12.15;;;2.95;;
75700;SDS011;64321;48.796;44.740;2024-02-21T11:27:33;9.27;;;2.47;;
75700;SDS011;64321;48.796;44.740;2024-02-21T11:32:36;8.05;;;2.20;;
75700;SDS011;64321;48.796;44.740;2024-02-21T11:37:38;6.47;;;2.42;;
75700;SDS011;64321;48.796;44.740;2024-02-21T11:42:42;9.45;;;2.75;;
75700;SDS011;64321;48.796;44.740;2024-02-21T11:47:45;18.05;;;3.15;;
75700;SDS011;64321;48.796;44.740;2024-02-21T11:52:48;7.18;;;2.03;;
75700;SDS011;64321;48.796;44.740;2024-02-21T11:57:51;11.00;;;3.25;;
75700;SDS011;64321;48.796;44.740;2024-02-21T12:02:54;9.43;;;2.83;;
75700;SDS011;64321;48.796;44.740;2024-02-21T12:07:57;8.07;;;2.35;;
75700;SDS011;64321;48.796;44.740;2024-02-21T12:13:07;10.43;;;2.47;;
75700;SDS011;64321;48.796;44.740;2024-02-21T12:18:10;11.77;;;2.85;;
75700;SDS011;64321;48.796;44.740;2024-02-21T12:23:13;7.25;;;1.95;;
75700;SDS011;64321;48.796;44.740;2024-02-21T12:28:17;9.48;;;2.40;;
75700;SDS011;64321;48.796;44.740;2024-02-21T12:33:20;13.30;;;2.55;;
75700;SDS011;64321;48.796;44.740;2024-02-21T12:38:24;6.18;;;2.13;;
75700;SDS011;64321;48.796;44.740;2024-02-21T12:43:27;6.40;;;1.85;;
75700;SDS011;64321;48.796;44.740;2024-02-21T12:48:29;10.43;;;1.73;;
75700;SDS011;64321;48.796;44.740;2024-02-21T12:53:32;8.02;;;2.03;;
75700;SDS011;64321;48.796;44.740;2024-02-21T12:58:35;4.97;;;2.08;;
75700;SDS011;64321;48.796;44.740;2024-02-21T13:03:38;6.78;;;1.70;;
75700;SDS011;64321;48.796;44.740;2024-02-21T13:08:40;8.77;;;1.88;;
75700;SDS011;64321;48.796;44.740;2024-02-21T13:13:43;6.68;;;2.15;;
75700;SDS011;64321;48.796;44.740;2024-02-21T13:18:46;7.38;;;2.17;;
75700;SDS011;64321;48.796;44.740;2024-02-21T13:23:50;8.73;;;3.00;;
75700;SDS011;64321;48.796;44.740;2024-02-21T13:33:55;16.42;;;5.15;;
75700;SDS011;64321;48.796;44.740;2024-02-21T13:38:57;13.27;;;5.82;;
75700;SDS011;64321;48.796;44.740;2024-02-21T13:44:00;11.20;;;3.17;;
75700;SDS011;64321;48.796;44.740;2024-02-21T13:49:03;6.22;;;2.53;;
75700;SDS011;64321;48.796;44.740;2024-02-21T13:54:10;7.13;;;3.17;;
75700;SDS011;64321;48.796;44.740;2024-02-21T13:59:13;3.40;;;1.92;;
75700;SDS011;64321;48.796;44.740;2024-02-21T14:04:15;9.43;;;2.58;;
75700;SDS011;64321;48.796;44.740;2024-02-21T14:14:21;9.90;;;2.05;;
75700;SDS011;64321;48.796;44.740;2024-02-21T14:24:26;6.70;;;1.20;;
75700;SDS011;64321;48.796;44.740;2024-02-21T14:29:29;15.50;;;5.40;;
75700;SDS011;64321;48.796;44.740;2024-02-21T14:34:32;9.50;;;2.78;;
75700;SDS011;64321;48.796;44.740;2024-02-21T14:39:34;12.90;;;3.05;;
75700;SDS011;64321;48.796;44.740;2024-02-21T14:49:39;15.00;;;3.58;;
75700;SDS011;64321;48.796;44.740;2024-02-21T14:54:42;10.23;;;3.60;;
75700;SDS011;64321;48.796;44.740;2024-02-21T14:59:49;12.23;;;3.63;;
75700;SDS011;64321;48.796;44.740;2024-02-21T15:04:55;10.52;;;2.40;;
75700;SDS011;64321;48.796;44.740;2024-02-21T15:09:58;8.75;;;2.50;;
75700;SDS011;64321;48.796;44.740;2024-02-21T15:15:01;10.05;;;2.40;;
75700;SDS011;64321;48.796;44.740;2024-02-21T15:20:04;15.10;;;2.50;;
75700;SDS011;64321;48.796;44.740;2024-02-21T15:25:09;10.82;;;3.28;;
75700;SDS011;64321;48.796;44.740;2024-02-21T15:30:18;6.45;;;2.58;;
75700;SDS011;64321;48.796;44.740;2024-02-21T15:35:21;14.10;;;2.05;;
75700;SDS011;64321;48.796;44.740;2024-02-21T15:40:23;7.50;;;2.00;;
75700;SDS011;64321;48.796;44.740;2024-02-21T15:45:26;8.90;;;3.03;;
75700;SDS011;64321;48.796;44.740;2024-02-21T15:50:29;11.43;;;4.28;;
75700;SDS011;64321;48.796;44.740;2024-02-21T15:55:32;14.30;;;6.70;;
75700;SDS011;64321;48.796;44.740;2024-02-21T16:05:37;13.07;;;3.65;;
75700;SDS011;64321;48.796;44.740;2024-02-21T16:10:39;18.45;;;6.15;;
75700;SDS011;64321;48.796;44.740;2024-02-21T16:15:42;16.58;;;5.40;;
75700;SDS011;64321;48.796;44.740;2024-02-21T16:20:44;20.98;;;5.57;;
75700;SDS011;64321;48.796;44.740;2024-02-21T16:25:47;16.30;;;4.22;;
75700;SDS011;64321;48.796;44.740;2024-02-21T16:30:50;12.85;;;3.65;;
75700;SDS011;64321;48.796;44.740;2024-02-21T16:35:54;16.95;;;4.20;;
75700;SDS011;64321;48.796;44.740;2024-02-21T16:40:57;15.13;;;4.00;;
75700;SDS011;64321;48.796;44.740;2024-02-21T16:46:00;4.05;;;1.08;;
75700;SDS011;64321;48.796;44.740;2024-02-21T16:51:02;6.45;;;1.33;;
75700;SDS011;64321;48.796;44.740;2024-02-21T16:56:10;6.93;;;0.90;;
75700;SDS011;64321;48.796;44.740;2024-02-21T17:06:15;2.53;;;0.60;;
75700;SDS011;64321;48.796;44.740;2024-02-21T17:11:19;6.95;;;1.13;;
75700;SDS011;64321;48.796;44.740;2024-02-21T17:21:25;5.45;;;3.35;;
75700;SDS011;64321;48.796;44.740;2024-02-21T17:26:30;4.63;;;1.30;;
75700;SDS011;64321;48.796;44.740;2024-02-21T17:31:34;7.25;;;1.33;;
75700;SDS011;64321;48.796;44.740;2024-02-21T17:36:37;6.82;;;2.28;;
75700;SDS011;64321;48.796;44.740;2024-02-21T17:41:40;4.07;;;1.17;;
75700;SDS011;64321;48.796;44.740;2024-02-21T17:51:45;6.65;;;1.00;;
75700;SDS011;64321;48.796;44.740;2024-02-21T17:56:47;5.80;;;1.40;;
75700;SDS011;64321;48.796;44.740;2024-02-21T18:01:50;7.65;;;1.67;;
75700;SDS011;64321;48.796;44.740;2024-02-21T18:06:53;6.43;;;1.90;;
75700;SDS011;64321;48.796;44.740;2024-02-21T18:11:57;4.35;;;1.23;;
75700;SDS011;64321;48.796;44.740;2024-02-21T18:17:03;4.32;;;1.08;;
75700;SDS011;64321;48.796;44.740;2024-02-21T18:22:07;2.80;;;1.00;;
75700;SDS011;64321;48.796;44.740;2024-02-21T18:27:11;4.07;;;1.33;;
75700;SDS011;64321;48.796;44.740;2024-02-21T18:32:14;3.72;;;2.35;;
75700;SDS011;64321;48.796;44.740;2024-02-21T18:37:16;8.55;;;1.85;;
75700;SDS011;64321;48.796;44.740;2024-02-21T18:42:19;5.32;;;1.30;;
75700;SDS011;64321;48.796;44.740;2024-02-21T18:47:22;3.30;;;0.82;;
75700;SDS011;64321;48.796;44.740;2024-02-21T18:57:28;3.22;;;0.93;;
75700;SDS011;64321;48.796;44.740;2024-02-21T19:02:31;8.65;;;3.40;;
75700;SDS011;64321;48.796;44.740;2024-02-21T19:07:33;15.52;;;5.05;;
75700;SDS011;64321;48.796;44.740;2024-02-21T19:17:38;12.93;;;4.50;;
75700;SDS011;64321;48.796;44.740;2024-02-21T19:22:43;16.83;;;5.03;;
75700;SDS011;64321;48.796;44.740;2024-02-21T19:27:48;12.77;;;4.00;;
75700;SDS011;64321;48.796;44.740;2024-02-21T19:32:50;11.80;;;4.40;;
75700;SDS011;64321;48.796;44.740;2024-02-21T19:37:54;12.27;;;4.95;;
75700;SDS011;64321;48.796;44.740;2024-02-21T19:43:05;10.70;;;3.88;;
75700;SDS011;64321;48.796;44.740;2024-02-21T19:48:07;11.43;;;2.72;;
75700;SDS011;64321;48.796;44.740;2024-02-21T19:53:10;3.40;;;1.85;;
75700;SDS011;64321;48.796;44.740;2024-02-21T19:58:15;8.32;;;2.13;;
75700;SDS011;64321;48.796;44.740;2024-02-21T20:03:17;10.48;;;3.83;;
75700;SDS011;64321;48.796;44.740;2024-02-21T20:08:20;9.30;;;2.80;;
75700;SDS011;64321;48.796;44.740;2024-02-21T20:13:24;6.50;;;1.55;;
75700;SDS011;64321;48.796;44.740;2024-02-21T20:23:29;8.48;;;2.80;;
75700;SDS011;64321;48.796;44.740;2024-02-21T20:28:32;6.18;;;2.75;;
75700;SDS011;64321;48.796;44.740;2024-02-21T20:38:37;11.60;;;3.75;;
75700;SDS011;64321;48.796;44.740;2024-02-21T20:43:40;11.95;;;5.00;;
75700;SDS011;64321;48.796;44.740;2024-02-21T20:48:42;12.18;;;5.35;;
75700;SDS011;64321;48.796;44.740;2024-02-21T20:53:46;17.15;;;6.47;;
75700;SDS011;64321;48.796;44.740;2024-02-21T20:58:48;19.05;;;7.15;;
75700;SDS011;64321;48.796;44.740;2024-02-21T21:03:51;14.75;;;5.78;;
75700;SDS011;64321;48.796;44.740;2024-02-21T21:08:54;11.27;;;5.65;;
75700;SDS011;64321;48.796;44.740;2024-02-21T21:13:56;14.23;;;5.53;;
75700;SDS011;64321;48.796;44.740;2024-02-21T21:18:59;11.05;;;5.22;;
75700;SDS011;64321;48.796;44.740;2024-02-21T21:24:02;10.70;;;4.70;;
75700;SDS011;64321;48.796;44.740;2024-02-21T21:34:07;16.58;;;6.30;;
75700;SDS011;64321;48.796;44.740;2024-02-21T21:39:10;12.05;;;5.65;;
75700;SDS011;64321;48.796;44.740;2024-02-21T21:44:12;8.40;;;4.32;;
75700;SDS011;64321;48.796;44.740;2024-02-21T21:49:16;13.65;;;4.70;;
75700;SDS011;64321;48.796;44.740;2024-02-21T21:54:18;12.48;;;3.60;;
75700;SDS011;64321;48.796;44.740;2024-02-21T21:59:21;8.95;;;3.40;;
75700;SDS011;64321;48.796;44.740;2024-02-21T22:04:23;10.95;;;3.28;;
75700;SDS011;64321;48.796;44.740;2024-02-21T22:09:26;11.80;;;3.83;;
75700;SDS011;64321;48.796;44.740;2024-02-21T22:14:29;14.00;;;4.45;;
75700;SDS011;64321;48.796;44.740;2024-02-21T22:19:31;14.05;;;3.97;;
75700;SDS011;64321;48.796;44.740;2024-02-21T22:24:34;7.97;;;3.42;;
75700;SDS011;64321;48.796;44.740;2024-02-21T22:29:36;12.65;;;3.42;;
75700;SDS011;64321;48.796;44.740;2024-02-21T22:34:42;11.20;;;3.45;;
75700;SDS011;64321;48.796;44.740;2024-02-21T22:39:45;13.90;;;5.75;;
75700;SDS011;64321;48.796;44.740;2024-02-21T22:44:48;17.75;;;7.35;;
75700;SDS011;64321;48.796;44.740;2024-02-21T22:49:50;16.60;;;5.53;;
75700;SDS011;64321;48.796;44.740;2024-02-21T22:54:53;16.17;;;6.40;;
75700;SDS011;64321;48.796;44.740;2024-02-21T23:04:58;14.68;;;5.50;;
75700;SDS011;64321;48.796;44.740;2024-02-21T23:10:01;12.85;;;5.60;;
75700;SDS011;64321;48.796;44.740;2024-02-21T23:15:05;14.02;;;5.47;;
75700;SDS011;64321;48.796;44.740;2024-02-21T23:20:08;11.57;;;5.00;;
75700;SDS011;64321;48.796;44.740;2024-02-21T23:25:12;15.40;;;6.45;;
75700;SDS011;64321;48.796;44.740;2024-02-21T23:30:15;22.65;;;7.88;;
75700;SDS011;64321;48.796;44.740;2024-02-21T23:35:18;26.75;;;10.50;;
75700;SDS011;64321;48.796;44.740;2024-02-21T23:40:20;17.60;;;7.22;;
75700;SDS011;64321;48.796;44.740;2024-02-21T23:45:24;14.20;;;6.25;;
75700;SDS011;64321;48.796;44.740;2024-02-21T23:50:27;15.07;;;5.63;;
75700;SDS011;64321;48.796;44.740;2024-02-21T23:55:29;10.60;;;4.30;;
